sensor_id;sensor_type;location;lat;lon;timestamp;temperature;humidity
53752;DHT22;41095;53.090;6.692;2023-05-07T00:00:00;12.80;99.90
53752;DHT22;41095;53.090;6.692;2023-05-07T00:02:26;12.80;99.90
53752;DHT22;41095;53.090;6.692;2023-05-07T00:04:52;12.80;99.90
53752;DHT22;41095;53.090;6.692;2023-05-07T00:07:18;12.80;99.90
53752;DHT22;41095;53.090;6.692;2023-05-07T00:09:43;12.70;99.90
53752;DHT22;41095;53.090;6.692;2023-05-07T00:12:09;12.80;99.90
53752;DHT22;41095;53.090;6.692;2023-05-07T00:14:35;12.70;99.90
53752;DHT22;41095;53.090;6.692;2023-05-07T00:17:01;12.70;99.90
53752;DHT22;41095;53.090;6.692;2023-05-07T00:19:26;12.70;99.90
53752;DHT22;41095;53.090;6.692;2023-05-07T00:21:52;12.60;99.90
53752;DHT22;41095;53.090;6.692;2023-05-07T00:24:22;12.60;99.90
53752;DHT22;41095;53.090;6.692;2023-05-07T00:26:47;12.50;99.90
53752;DHT22;41095;53.090;6.692;2023-05-07T00:29:13;12.50;99.90
53752;DHT22;41095;53.090;6.692;2023-05-07T00:31:39;12.50;99.90
53752;DHT22;41095;53.090;6.692;2023-05-07T00:34:04;12.50;99.90
53752;DHT22;41095;53.090;6.692;2023-05-07T00:36:31;12.40;99.90
53752;DHT22;41095;53.090;6.692;2023-05-07T00:38:59;12.40;99.90
53752;DHT22;41095;53.090;6.692;2023-05-07T00:41:26;12.30;99.90
53752;DHT22;41095;53.090;6.692;2023-05-07T00:43:52;12.30;99.90
53752;DHT22;41095;53.090;6.692;2023-05-07T00:46:20;12.30;99.90
53752;DHT22;41095;53.090;6.692;2023-05-07T00:48:47;12.20;99.90
53752;DHT22;41095;53.090;6.692;2023-05-07T00:51:13;12.20;99.90
53752;DHT22;41095;53.090;6.692;2023-05-07T00:53:39;12.20;99.90
53752;DHT22;41095;53.090;6.692;2023-05-07T00:56:05;12.10;99.90
53752;DHT22;41095;53.090;6.692;2023-05-07T00:58:32;12.10;99.90
53752;DHT22;41095;53.090;6.692;2023-05-07T01:00:59;12.10;99.90
53752;DHT22;41095;53.090;6.692;2023-05-07T01:03:25;12.10;99.90
53752;DHT22;41095;53.090;6.692;2023-05-07T01:05:53;12.10;99.90
53752;DHT22;41095;53.090;6.692;2023-05-07T01:08:19;12.00;99.90
53752;DHT22;41095;53.090;6.692;2023-05-07T01:10:46;12.00;99.90
53752;DHT22;41095;53.090;6.692;2023-05-07T01:13:13;12.00;99.90
53752;DHT22;41095;53.090;6.692;2023-05-07T01:15:39;12.00;99.90
53752;DHT22;41095;53.090;6.692;2023-05-07T01:18:06;12.00;99.90
53752;DHT22;41095;53.090;6.692;2023-05-07T01:20:32;11.90;99.90
53752;DHT22;41095;53.090;6.692;2023-05-07T01:23:00;11.90;99.90
53752;DHT22;41095;53.090;6.692;2023-05-07T01:25:26;11.90;99.90
53752;DHT22;41095;53.090;6.692;2023-05-07T01:27:52;11.90;99.90
53752;DHT22;41095;53.090;6.692;2023-05-07T01:30:18;11.80;99.90
53752;DHT22;41095;53.090;6.692;2023-05-07T01:32:52;11.80;99.90
53752;DHT22;41095;53.090;6.692;2023-05-07T01:35:20;11.80;99.90
53752;DHT22;41095;53.090;6.692;2023-05-07T01:37:48;11.70;99.90
53752;DHT22;41095;53.090;6.692;2023-05-07T01:40:14;11.70;99.90
53752;DHT22;41095;53.090;6.692;2023-05-07T01:42:41;11.70;99.90
53752;DHT22;41095;53.090;6.692;2023-05-07T01:45:08;11.70;99.90
53752;DHT22;41095;53.090;6.692;2023-05-07T01:47:35;11.70;99.90
53752;DHT22;41095;53.090;6.692;2023-05-07T01:50:01;11.70;99.90
53752;DHT22;41095;53.090;6.692;2023-05-07T01:52:28;11.60;99.90
53752;DHT22;41095;53.090;6.692;2023-05-07T01:54:54;11.60;99.90
53752;DHT22;41095;53.090;6.692;2023-05-07T01:57:19;11.60;99.90
53752;DHT22;41095;53.090;6.692;2023-05-07T01:59:46;11.60;99.90
53752;DHT22;41095;53.090;6.692;2023-05-07T02:02:11;11.60;99.90
53752;DHT22;41095;53.090;6.692;2023-05-07T02:04:37;11.60;99.90
53752;DHT22;41095;53.090;6.692;2023-05-07T02:07:03;11.50;99.90
53752;DHT22;41095;53.090;6.692;2023-05-07T02:09:28;11.50;99.90
53752;DHT22;41095;53.090;6.692;2023-05-07T02:11:54;11.50;99.90
53752;DHT22;41095;53.090;6.692;2023-05-07T02:14:20;11.50;99.90
53752;DHT22;41095;53.090;6.692;2023-05-07T02:16:46;11.50;99.90
53752;DHT22;41095;53.090;6.692;2023-05-07T02:19:11;11.50;99.90
53752;DHT22;41095;53.090;6.692;2023-05-07T02:21:37;11.40;99.90
53752;DHT22;41095;53.090;6.692;2023-05-07T02:24:03;11.50;99.90
53752;DHT22;41095;53.090;6.692;2023-05-07T02:26:28;11.40;99.90
53752;DHT22;41095;53.090;6.692;2023-05-07T02:28:54;11.40;99.90
53752;DHT22;41095;53.090;6.692;2023-05-07T02:31:20;11.40;99.90
53752;DHT22;41095;53.090;6.692;2023-05-07T02:33:45;11.40;99.90
53752;DHT22;41095;53.090;6.692;2023-05-07T02:36:12;11.40;99.90
53752;DHT22;41095;53.090;6.692;2023-05-07T02:38:37;11.40;99.90
53752;DHT22;41095;53.090;6.692;2023-05-07T02:41:03;11.40;99.90
53752;DHT22;41095;53.090;6.692;2023-05-07T02:43:29;11.40;99.90
53752;DHT22;41095;53.090;6.692;2023-05-07T02:46:05;11.40;99.90
53752;DHT22;41095;53.090;6.692;2023-05-07T02:48:32;11.40;99.90
53752;DHT22;41095;53.090;6.692;2023-05-07T02:50:58;11.40;99.90
53752;DHT22;41095;53.090;6.692;2023-05-07T02:53:24;11.40;99.90
53752;DHT22;41095;53.090;6.692;2023-05-07T02:55:57;11.40;99.90
53752;DHT22;41095;53.090;6.692;2023-05-07T02:58:23;11.30;99.90
53752;DHT22;41095;53.090;6.692;2023-05-07T03:00:49;11.40;99.90
53752;DHT22;41095;53.090;6.692;2023-05-07T03:03:15;11.40;99.90
53752;DHT22;41095;53.090;6.692;2023-05-07T03:05:41;11.40;99.90
53752;DHT22;41095;53.090;6.692;2023-05-07T03:08:07;11.30;99.90
53752;DHT22;41095;53.090;6.692;2023-05-07T03:10:33;11.30;99.90
53752;DHT22;41095;53.090;6.692;2023-05-07T03:12:59;11.30;99.90
53752;DHT22;41095;53.090;6.692;2023-05-07T03:15:25;11.30;99.90
53752;DHT22;41095;53.090;6.692;2023-05-07T03:17:50;11.30;99.90
53752;DHT22;41095;53.090;6.692;2023-05-07T03:20:16;11.30;99.90
53752;DHT22;41095;53.090;6.692;2023-05-07T03:22:42;11.30;99.90
53752;DHT22;41095;53.090;6.692;2023-05-07T03:25:08;11.30;99.90
53752;DHT22;41095;53.090;6.692;2023-05-07T03:27:34;11.30;99.90
53752;DHT22;41095;53.090;6.692;2023-05-07T03:30:00;11.20;99.90
53752;DHT22;41095;53.090;6.692;2023-05-07T03:32:26;11.20;99.90
53752;DHT22;41095;53.090;6.692;2023-05-07T03:34:52;11.20;99.90
53752;DHT22;41095;53.090;6.692;2023-05-07T03:37:18;11.20;99.90
53752;DHT22;41095;53.090;6.692;2023-05-07T03:39:43;11.20;99.90
53752;DHT22;41095;53.090;6.692;2023-05-07T03:42:09;11.10;99.90
53752;DHT22;41095;53.090;6.692;2023-05-07T03:44:35;11.20;99.90
53752;DHT22;41095;53.090;6.692;2023-05-07T03:47:02;11.10;99.90
53752;DHT22;41095;53.090;6.692;2023-05-07T03:49:28;11.10;99.90
53752;DHT22;41095;53.090;6.692;2023-05-07T03:51:53;11.10;99.90
53752;DHT22;41095;53.090;6.692;2023-05-07T03:54:19;11.10;99.90
53752;DHT22;41095;53.090;6.692;2023-05-07T03:56:45;11.00;99.90
53752;DHT22;41095;53.090;6.692;2023-05-07T03:59:11;11.00;99.90
53752;DHT22;41095;53.090;6.692;2023-05-07T04:01:37;11.00;99.90
53752;DHT22;41095;53.090;6.692;2023-05-07T04:04:03;11.00;99.90
53752;DHT22;41095;53.090;6.692;2023-05-07T04:06:29;11.00;99.90
53752;DHT22;41095;53.090;6.692;2023-05-07T04:08:55;11.00;99.90
53752;DHT22;41095;53.090;6.692;2023-05-07T04:11:21;11.00;99.90
53752;DHT22;41095;53.090;6.692;2023-05-07T04:13:47;11.00;99.90
53752;DHT22;41095;53.090;6.692;2023-05-07T04:16:13;11.00;99.90
53752;DHT22;41095;53.090;6.692;2023-05-07T04:18:38;11.00;99.90
53752;DHT22;41095;53.090;6.692;2023-05-07T04:21:05;11.00;99.90
53752;DHT22;41095;53.090;6.692;2023-05-07T04:23:31;11.00;99.90
53752;DHT22;41095;53.090;6.692;2023-05-07T04:25:56;10.90;99.90
53752;DHT22;41095;53.090;6.692;2023-05-07T04:28:23;10.90;99.90
53752;DHT22;41095;53.090;6.692;2023-05-07T04:30:49;10.90;99.90
53752;DHT22;41095;53.090;6.692;2023-05-07T04:33:15;10.90;99.90
53752;DHT22;41095;53.090;6.692;2023-05-07T04:35:43;10.90;99.90
53752;DHT22;41095;53.090;6.692;2023-05-07T04:38:09;10.90;99.90
53752;DHT22;41095;53.090;6.692;2023-05-07T04:40:38;10.90;99.90
53752;DHT22;41095;53.090;6.692;2023-05-07T04:43:04;10.90;99.90
53752;DHT22;41095;53.090;6.692;2023-05-07T04:45:30;10.90;99.90
53752;DHT22;41095;53.090;6.692;2023-05-07T04:47:56;10.90;99.90
53752;DHT22;41095;53.090;6.692;2023-05-07T04:50:21;10.90;99.90
53752;DHT22;41095;53.090;6.692;2023-05-07T04:52:49;10.90;99.90
53752;DHT22;41095;53.090;6.692;2023-05-07T04:55:15;10.90;99.90
53752;DHT22;41095;53.090;6.692;2023-05-07T04:57:41;10.90;99.90
53752;DHT22;41095;53.090;6.692;2023-05-07T05:00:07;10.90;99.90
53752;DHT22;41095;53.090;6.692;2023-05-07T05:02:39;10.90;99.90
53752;DHT22;41095;53.090;6.692;2023-05-07T05:05:06;10.90;99.90
53752;DHT22;41095;53.090;6.692;2023-05-07T05:07:32;10.90;99.90
53752;DHT22;41095;53.090;6.692;2023-05-07T05:09:58;10.90;99.90
53752;DHT22;41095;53.090;6.692;2023-05-07T05:12:24;10.90;99.90
53752;DHT22;41095;53.090;6.692;2023-05-07T05:14:50;10.90;99.90
53752;DHT22;41095;53.090;6.692;2023-05-07T05:17:15;10.80;99.90
53752;DHT22;41095;53.090;6.692;2023-05-07T05:19:41;10.90;99.90
53752;DHT22;41095;53.090;6.692;2023-05-07T05:22:07;10.90;99.90
53752;DHT22;41095;53.090;6.692;2023-05-07T05:24:32;10.90;99.90
53752;DHT22;41095;53.090;6.692;2023-05-07T05:26:58;10.90;99.90
53752;DHT22;41095;53.090;6.692;2023-05-07T05:29:26;10.90;99.90
53752;DHT22;41095;53.090;6.692;2023-05-07T05:31:52;10.90;99.90
53752;DHT22;41095;53.090;6.692;2023-05-07T05:34:18;10.90;99.90
53752;DHT22;41095;53.090;6.692;2023-05-07T05:36:45;10.90;99.90
53752;DHT22;41095;53.090;6.692;2023-05-07T05:39:11;11.00;99.90
53752;DHT22;41095;53.090;6.692;2023-05-07T05:41:36;11.00;99.90
53752;DHT22;41095;53.090;6.692;2023-05-07T05:44:02;11.00;99.90
53752;DHT22;41095;53.090;6.692;2023-05-07T05:46:28;11.00;99.90
53752;DHT22;41095;53.090;6.692;2023-05-07T05:48:53;11.00;99.90
53752;DHT22;41095;53.090;6.692;2023-05-07T05:51:21;11.00;99.90
53752;DHT22;41095;53.090;6.692;2023-05-07T05:53:46;11.00;99.90
53752;DHT22;41095;53.090;6.692;2023-05-07T05:56:12;11.00;99.90
53752;DHT22;41095;53.090;6.692;2023-05-07T05:58:38;11.00;99.90
53752;DHT22;41095;53.090;6.692;2023-05-07T06:01:04;11.10;99.90
53752;DHT22;41095;53.090;6.692;2023-05-07T06:03:31;11.10;99.90
53752;DHT22;41095;53.090;6.692;2023-05-07T06:05:57;11.20;99.90
53752;DHT22;41095;53.090;6.692;2023-05-07T06:08:23;11.20;99.90
53752;DHT22;41095;53.090;6.692;2023-05-07T06:10:49;11.20;99.90
53752;DHT22;41095;53.090;6.692;2023-05-07T06:13:15;11.20;99.90
53752;DHT22;41095;53.090;6.692;2023-05-07T06:15:41;11.20;99.90
53752;DHT22;41095;53.090;6.692;2023-05-07T06:18:06;11.20;99.90
53752;DHT22;41095;53.090;6.692;2023-05-07T06:20:32;11.20;99.90
53752;DHT22;41095;53.090;6.692;2023-05-07T06:22:58;11.20;99.90
53752;DHT22;41095;53.090;6.692;2023-05-07T06:25:23;11.20;99.90
53752;DHT22;41095;53.090;6.692;2023-05-07T06:27:49;11.20;99.90
53752;DHT22;41095;53.090;6.692;2023-05-07T06:30:15;11.20;99.90
53752;DHT22;41095;53.090;6.692;2023-05-07T06:32:41;11.20;99.90
53752;DHT22;41095;53.090;6.692;2023-05-07T06:35:07;11.20;99.90
53752;DHT22;41095;53.090;6.692;2023-05-07T06:37:33;11.20;99.90
53752;DHT22;41095;53.090;6.692;2023-05-07T06:39:58;11.30;99.90
53752;DHT22;41095;53.090;6.692;2023-05-07T06:42:24;11.30;99.90
53752;DHT22;41095;53.090;6.692;2023-05-07T06:44:50;11.30;99.90
53752;DHT22;41095;53.090;6.692;2023-05-07T06:47:15;11.30;99.90
53752;DHT22;41095;53.090;6.692;2023-05-07T06:49:41;11.30;99.90
53752;DHT22;41095;53.090;6.692;2023-05-07T06:52:07;11.40;99.90
53752;DHT22;41095;53.090;6.692;2023-05-07T06:54:32;11.40;99.90
53752;DHT22;41095;53.090;6.692;2023-05-07T06:56:58;11.50;99.90
53752;DHT22;41095;53.090;6.692;2023-05-07T06:59:24;11.40;99.90
53752;DHT22;41095;53.090;6.692;2023-05-07T07:01:49;11.40;99.90
53752;DHT22;41095;53.090;6.692;2023-05-07T07:04:15;11.50;99.90
53752;DHT22;41095;53.090;6.692;2023-05-07T07:06:41;11.40;99.90
53752;DHT22;41095;53.090;6.692;2023-05-07T07:09:07;11.50;99.90
53752;DHT22;41095;53.090;6.692;2023-05-07T07:11:32;11.50;99.90
53752;DHT22;41095;53.090;6.692;2023-05-07T07:13:58;11.60;99.90
53752;DHT22;41095;53.090;6.692;2023-05-07T07:16:24;11.60;99.90
53752;DHT22;41095;53.090;6.692;2023-05-07T07:18:50;11.60;99.90
53752;DHT22;41095;53.090;6.692;2023-05-07T07:21:16;11.60;99.90
53752;DHT22;41095;53.090;6.692;2023-05-07T07:23:42;11.70;99.90
53752;DHT22;41095;53.090;6.692;2023-05-07T07:26:07;11.70;99.90
53752;DHT22;41095;53.090;6.692;2023-05-07T07:28:33;11.80;99.90
53752;DHT22;41095;53.090;6.692;2023-05-07T07:30:59;11.90;99.90
53752;DHT22;41095;53.090;6.692;2023-05-07T07:33:24;11.90;99.90
53752;DHT22;41095;53.090;6.692;2023-05-07T07:35:50;11.90;99.90
53752;DHT22;41095;53.090;6.692;2023-05-07T07:38:16;11.90;99.90
53752;DHT22;41095;53.090;6.692;2023-05-07T07:40:41;11.90;99.90
53752;DHT22;41095;53.090;6.692;2023-05-07T07:43:09;12.00;99.90
53752;DHT22;41095;53.090;6.692;2023-05-07T07:45:35;12.10;99.90
53752;DHT22;41095;53.090;6.692;2023-05-07T07:48:00;12.10;99.90
53752;DHT22;41095;53.090;6.692;2023-05-07T07:50:26;12.20;99.90
53752;DHT22;41095;53.090;6.692;2023-05-07T07:52:52;12.20;99.90
53752;DHT22;41095;53.090;6.692;2023-05-07T07:55:20;12.20;99.90
53752;DHT22;41095;53.090;6.692;2023-05-07T07:57:48;12.30;99.90
53752;DHT22;41095;53.090;6.692;2023-05-07T08:00:15;12.30;99.90
53752;DHT22;41095;53.090;6.692;2023-05-07T08:02:41;12.30;99.90
53752;DHT22;41095;53.090;6.692;2023-05-07T08:05:07;12.40;99.90
53752;DHT22;41095;53.090;6.692;2023-05-07T08:07:32;12.40;99.90
53752;DHT22;41095;53.090;6.692;2023-05-07T08:09:58;12.60;99.90
53752;DHT22;41095;53.090;6.692;2023-05-07T08:12:24;12.60;99.90
53752;DHT22;41095;53.090;6.692;2023-05-07T08:14:49;12.70;99.90
53752;DHT22;41095;53.090;6.692;2023-05-07T08:17:15;12.80;99.90
53752;DHT22;41095;53.090;6.692;2023-05-07T08:19:42;12.90;99.90
53752;DHT22;41095;53.090;6.692;2023-05-07T08:22:09;12.90;99.90
53752;DHT22;41095;53.090;6.692;2023-05-07T08:24:36;13.00;99.90
53752;DHT22;41095;53.090;6.692;2023-05-07T08:27:02;13.00;99.90
53752;DHT22;41095;53.090;6.692;2023-05-07T08:29:27;12.90;99.90
53752;DHT22;41095;53.090;6.692;2023-05-07T08:31:53;13.00;99.90
53752;DHT22;41095;53.090;6.692;2023-05-07T08:34:19;13.00;99.90
53752;DHT22;41095;53.090;6.692;2023-05-07T08:36:45;13.50;99.90
53752;DHT22;41095;53.090;6.692;2023-05-07T08:39:14;13.10;99.90
53752;DHT22;41095;53.090;6.692;2023-05-07T08:41:40;13.10;99.90
53752;DHT22;41095;53.090;6.692;2023-05-07T08:44:12;13.30;99.90
53752;DHT22;41095;53.090;6.692;2023-05-07T08:46:39;13.50;99.90
53752;DHT22;41095;53.090;6.692;2023-05-07T08:49:07;13.60;99.90
53752;DHT22;41095;53.090;6.692;2023-05-07T08:51:34;13.70;99.90
53752;DHT22;41095;53.090;6.692;2023-05-07T08:54:01;13.80;99.90
53752;DHT22;41095;53.090;6.692;2023-05-07T08:56:27;13.90;99.90
53752;DHT22;41095;53.090;6.692;2023-05-07T08:58:52;14.10;99.90
53752;DHT22;41095;53.090;6.692;2023-05-07T09:01:22;14.30;99.90
53752;DHT22;41095;53.090;6.692;2023-05-07T09:03:49;14.50;99.90
53752;DHT22;41095;53.090;6.692;2023-05-07T09:06:15;14.60;99.90
53752;DHT22;41095;53.090;6.692;2023-05-07T09:08:48;14.70;99.90
53752;DHT22;41095;53.090;6.692;2023-05-07T09:11:14;14.70;99.90
53752;DHT22;41095;53.090;6.692;2023-05-07T09:13:40;14.70;99.90
53752;DHT22;41095;53.090;6.692;2023-05-07T09:16:11;14.70;99.90
53752;DHT22;41095;53.090;6.692;2023-05-07T09:18:41;14.90;99.90
53752;DHT22;41095;53.090;6.692;2023-05-07T09:21:10;15.00;99.90
53752;DHT22;41095;53.090;6.692;2023-05-07T09:23:35;15.10;99.90
53752;DHT22;41095;53.090;6.692;2023-05-07T09:26:01;15.20;99.90
53752;DHT22;41095;53.090;6.692;2023-05-07T09:28:27;15.30;99.90
53752;DHT22;41095;53.090;6.692;2023-05-07T09:30:53;15.40;99.90
53752;DHT22;41095;53.090;6.692;2023-05-07T09:33:18;15.40;99.90
53752;DHT22;41095;53.090;6.692;2023-05-07T09:35:44;15.40;99.90
53752;DHT22;41095;53.090;6.692;2023-05-07T09:38:10;15.40;99.90
53752;DHT22;41095;53.090;6.692;2023-05-07T09:40:35;15.30;99.90
53752;DHT22;41095;53.090;6.692;2023-05-07T09:43:11;15.50;99.90
53752;DHT22;41095;53.090;6.692;2023-05-07T09:45:38;15.70;99.90
53752;DHT22;41095;53.090;6.692;2023-05-07T09:48:05;16.00;99.90
53752;DHT22;41095;53.090;6.692;2023-05-07T09:50:48;16.00;99.90
53752;DHT22;41095;53.090;6.692;2023-05-07T09:53:15;16.00;99.90
53752;DHT22;41095;53.090;6.692;2023-05-07T09:55:43;16.20;99.90
53752;DHT22;41095;53.090;6.692;2023-05-07T09:58:09;16.40;99.90
53752;DHT22;41095;53.090;6.692;2023-05-07T10:00:37;16.40;99.90
53752;DHT22;41095;53.090;6.692;2023-05-07T10:03:06;16.30;99.90
53752;DHT22;41095;53.090;6.692;2023-05-07T10:05:33;16.40;99.90
53752;DHT22;41095;53.090;6.692;2023-05-07T10:07:59;16.50;99.90
53752;DHT22;41095;53.090;6.692;2023-05-07T10:10:27;16.50;99.90
53752;DHT22;41095;53.090;6.692;2023-05-07T10:12:54;16.40;99.90
53752;DHT22;41095;53.090;6.692;2023-05-07T10:15:20;16.40;99.90
53752;DHT22;41095;53.090;6.692;2023-05-07T10:17:46;16.50;99.90
53752;DHT22;41095;53.090;6.692;2023-05-07T10:20:13;16.40;99.90
53752;DHT22;41095;53.090;6.692;2023-05-07T10:22:41;16.40;99.90
53752;DHT22;41095;53.090;6.692;2023-05-07T10:25:34;16.40;99.90
53752;DHT22;41095;53.090;6.692;2023-05-07T10:28:05;16.50;99.90
53752;DHT22;41095;53.090;6.692;2023-05-07T10:33:07;16.70;99.90
53752;DHT22;41095;53.090;6.692;2023-05-07T10:35:43;16.70;99.90
53752;DHT22;41095;53.090;6.692;2023-05-07T10:38:09;16.70;99.90
53752;DHT22;41095;53.090;6.692;2023-05-07T10:40:35;16.70;99.90
53752;DHT22;41095;53.090;6.692;2023-05-07T10:43:03;16.80;99.90
53752;DHT22;41095;53.090;6.692;2023-05-07T10:45:31;16.80;99.90
53752;DHT22;41095;53.090;6.692;2023-05-07T10:48:11;17.00;99.90
53752;DHT22;41095;53.090;6.692;2023-05-07T10:50:38;17.00;99.90
53752;DHT22;41095;53.090;6.692;2023-05-07T10:55:46;16.90;99.90
53752;DHT22;41095;53.090;6.692;2023-05-07T11:00:50;16.90;99.90
53752;DHT22;41095;53.090;6.692;2023-05-07T11:03:17;17.00;99.90
53752;DHT22;41095;53.090;6.692;2023-05-07T11:05:43;17.10;99.90
53752;DHT22;41095;53.090;6.692;2023-05-07T11:08:09;17.20;99.90
53752;DHT22;41095;53.090;6.692;2023-05-07T11:11:07;17.40;99.90
53752;DHT22;41095;53.090;6.692;2023-05-07T11:13:48;17.40;99.90
53752;DHT22;41095;53.090;6.692;2023-05-07T11:16:17;17.50;99.90
53752;DHT22;41095;53.090;6.692;2023-05-07T11:18:52;17.50;99.90
53752;DHT22;41095;53.090;6.692;2023-05-07T11:21:38;17.60;99.90
53752;DHT22;41095;53.090;6.692;2023-05-07T11:24:08;17.40;99.90
53752;DHT22;41095;53.090;6.692;2023-05-07T11:27:00;17.40;99.90
53752;DHT22;41095;53.090;6.692;2023-05-07T11:29:26;17.50;99.90
53752;DHT22;41095;53.090;6.692;2023-05-07T11:31:54;17.50;99.90
53752;DHT22;41095;53.090;6.692;2023-05-07T11:34:24;17.60;99.90
53752;DHT22;41095;53.090;6.692;2023-05-07T11:36:51;17.60;99.90
53752;DHT22;41095;53.090;6.692;2023-05-07T11:39:28;17.70;99.90
53752;DHT22;41095;53.090;6.692;2023-05-07T11:41:54;17.70;99.90
53752;DHT22;41095;53.090;6.692;2023-05-07T11:44:20;17.60;99.90
53752;DHT22;41095;53.090;6.692;2023-05-07T11:46:46;17.50;99.90
53752;DHT22;41095;53.090;6.692;2023-05-07T11:49:12;17.70;99.90
53752;DHT22;41095;53.090;6.692;2023-05-07T11:51:38;17.60;99.90
53752;DHT22;41095;53.090;6.692;2023-05-07T11:54:05;17.60;99.90
53752;DHT22;41095;53.090;6.692;2023-05-07T11:56:34;17.60;99.90
53752;DHT22;41095;53.090;6.692;2023-05-07T11:59:01;17.80;99.90
53752;DHT22;41095;53.090;6.692;2023-05-07T12:01:26;17.80;99.90
53752;DHT22;41095;53.090;6.692;2023-05-07T12:03:52;17.70;99.90
53752;DHT22;41095;53.090;6.692;2023-05-07T12:06:18;17.80;99.90
53752;DHT22;41095;53.090;6.692;2023-05-07T12:08:45;17.80;99.90
53752;DHT22;41095;53.090;6.692;2023-05-07T12:11:23;17.70;99.90
53752;DHT22;41095;53.090;6.692;2023-05-07T12:13:50;17.70;99.90
53752;DHT22;41095;53.090;6.692;2023-05-07T12:16:17;17.80;99.90
53752;DHT22;41095;53.090;6.692;2023-05-07T12:18:44;17.90;99.90
53752;DHT22;41095;53.090;6.692;2023-05-07T12:21:10;17.90;99.90
53752;DHT22;41095;53.090;6.692;2023-05-07T12:23:37;18.00;99.90
53752;DHT22;41095;53.090;6.692;2023-05-07T12:26:04;18.00;99.90
53752;DHT22;41095;53.090;6.692;2023-05-07T12:28:30;18.00;99.90
53752;DHT22;41095;53.090;6.692;2023-05-07T12:30:57;18.00;99.90
53752;DHT22;41095;53.090;6.692;2023-05-07T12:33:26;18.00;99.90
53752;DHT22;41095;53.090;6.692;2023-05-07T12:35:54;18.10;99.90
53752;DHT22;41095;53.090;6.692;2023-05-07T12:38:20;18.30;99.90
53752;DHT22;41095;53.090;6.692;2023-05-07T12:40:49;18.40;99.90
53752;DHT22;41095;53.090;6.692;2023-05-07T12:43:26;18.40;99.90
53752;DHT22;41095;53.090;6.692;2023-05-07T12:45:54;18.50;99.90
53752;DHT22;41095;53.090;6.692;2023-05-07T12:48:21;18.30;99.90
53752;DHT22;41095;53.090;6.692;2023-05-07T12:50:49;18.30;99.90
53752;DHT22;41095;53.090;6.692;2023-05-07T12:53:15;18.20;99.90
53752;DHT22;41095;53.090;6.692;2023-05-07T12:55:46;18.20;99.90
53752;DHT22;41095;53.090;6.692;2023-05-07T12:58:20;18.20;99.90
53752;DHT22;41095;53.090;6.692;2023-05-07T13:00:50;18.30;99.90
53752;DHT22;41095;53.090;6.692;2023-05-07T13:03:24;18.30;99.90
53752;DHT22;41095;53.090;6.692;2023-05-07T13:05:50;18.30;99.90
53752;DHT22;41095;53.090;6.692;2023-05-07T13:08:25;18.30;99.90
53752;DHT22;41095;53.090;6.692;2023-05-07T13:10:52;18.30;99.90
53752;DHT22;41095;53.090;6.692;2023-05-07T13:13:19;18.30;99.90
53752;DHT22;41095;53.090;6.692;2023-05-07T13:15:45;18.30;99.90
53752;DHT22;41095;53.090;6.692;2023-05-07T13:18:11;18.30;99.90
53752;DHT22;41095;53.090;6.692;2023-05-07T13:20:37;18.30;99.90
53752;DHT22;41095;53.090;6.692;2023-05-07T13:23:03;18.40;99.90
53752;DHT22;41095;53.090;6.692;2023-05-07T13:25:30;18.50;99.90
53752;DHT22;41095;53.090;6.692;2023-05-07T13:27:59;18.50;99.90
53752;DHT22;41095;53.090;6.692;2023-05-07T13:30:25;18.70;99.90
53752;DHT22;41095;53.090;6.692;2023-05-07T13:32:53;18.90;99.90
53752;DHT22;41095;53.090;6.692;2023-05-07T13:35:20;19.00;99.90
53752;DHT22;41095;53.090;6.692;2023-05-07T13:37:46;19.20;99.90
53752;DHT22;41095;53.090;6.692;2023-05-07T13:40:13;19.30;99.90
53752;DHT22;41095;53.090;6.692;2023-05-07T13:42:39;19.30;99.90
53752;DHT22;41095;53.090;6.692;2023-05-07T13:45:05;19.10;99.90
53752;DHT22;41095;53.090;6.692;2023-05-07T13:47:31;19.00;99.90
53752;DHT22;41095;53.090;6.692;2023-05-07T13:49:57;18.90;99.90
53752;DHT22;41095;53.090;6.692;2023-05-07T13:52:22;19.00;99.90
53752;DHT22;41095;53.090;6.692;2023-05-07T13:54:48;19.10;99.90
53752;DHT22;41095;53.090;6.692;2023-05-07T13:57:14;19.20;99.90
53752;DHT22;41095;53.090;6.692;2023-05-07T13:59:40;19.30;99.90
53752;DHT22;41095;53.090;6.692;2023-05-07T14:02:06;19.30;99.90
53752;DHT22;41095;53.090;6.692;2023-05-07T14:04:32;19.30;99.90
53752;DHT22;41095;53.090;6.692;2023-05-07T14:06:57;19.30;99.90
53752;DHT22;41095;53.090;6.692;2023-05-07T14:09:23;19.20;99.90
53752;DHT22;41095;53.090;6.692;2023-05-07T14:11:49;19.30;99.90
53752;DHT22;41095;53.090;6.692;2023-05-07T14:14:17;19.30;99.90
53752;DHT22;41095;53.090;6.692;2023-05-07T14:16:43;19.30;99.90
53752;DHT22;41095;53.090;6.692;2023-05-07T14:19:09;19.30;99.90
53752;DHT22;41095;53.090;6.692;2023-05-07T14:21:35;19.10;99.90
53752;DHT22;41095;53.090;6.692;2023-05-07T14:24:01;19.10;99.90
53752;DHT22;41095;53.090;6.692;2023-05-07T14:26:26;19.10;99.90
53752;DHT22;41095;53.090;6.692;2023-05-07T14:28:53;19.10;99.90
53752;DHT22;41095;53.090;6.692;2023-05-07T14:31:20;19.30;99.90
53752;DHT22;41095;53.090;6.692;2023-05-07T14:33:46;19.50;99.90
53752;DHT22;41095;53.090;6.692;2023-05-07T14:36:12;19.70;99.90
53752;DHT22;41095;53.090;6.692;2023-05-07T14:38:38;19.90;99.90
53752;DHT22;41095;53.090;6.692;2023-05-07T14:41:03;19.90;99.90
53752;DHT22;41095;53.090;6.692;2023-05-07T14:43:29;19.90;99.90
53752;DHT22;41095;53.090;6.692;2023-05-07T14:45:55;19.70;99.90
53752;DHT22;41095;53.090;6.692;2023-05-07T14:48:21;19.60;99.90
53752;DHT22;41095;53.090;6.692;2023-05-07T14:50:47;19.40;99.90
53752;DHT22;41095;53.090;6.692;2023-05-07T14:53:13;19.30;99.90
53752;DHT22;41095;53.090;6.692;2023-05-07T14:55:39;19.20;99.90
53752;DHT22;41095;53.090;6.692;2023-05-07T14:58:05;19.30;99.90
53752;DHT22;41095;53.090;6.692;2023-05-07T15:00:30;19.20;99.90
53752;DHT22;41095;53.090;6.692;2023-05-07T15:03:10;19.20;99.90
53752;DHT22;41095;53.090;6.692;2023-05-07T15:05:37;19.20;99.90
53752;DHT22;41095;53.090;6.692;2023-05-07T15:08:03;19.10;99.90
53752;DHT22;41095;53.090;6.692;2023-05-07T15:10:28;19.00;99.90
53752;DHT22;41095;53.090;6.692;2023-05-07T15:12:54;19.00;99.90
53752;DHT22;41095;53.090;6.692;2023-05-07T15:15:20;18.90;99.90
53752;DHT22;41095;53.090;6.692;2023-05-07T15:17:46;18.90;99.90
53752;DHT22;41095;53.090;6.692;2023-05-07T15:20:11;18.90;99.90
53752;DHT22;41095;53.090;6.692;2023-05-07T15:22:37;18.90;99.90
53752;DHT22;41095;53.090;6.692;2023-05-07T15:25:04;18.90;99.90
53752;DHT22;41095;53.090;6.692;2023-05-07T15:27:30;19.10;99.90
53752;DHT22;41095;53.090;6.692;2023-05-07T15:29:57;19.30;99.90
53752;DHT22;41095;53.090;6.692;2023-05-07T15:32:22;19.50;99.90
53752;DHT22;41095;53.090;6.692;2023-05-07T15:34:48;19.70;99.90